Time;durP1;ratioP1;P1;durP2;ratioP2;P2;SDS_P1;SDS_P2;PMS_P1;PMS_P2;Temp;Humidity;BMP_temperature;BMP_pressure;BME280_temperature;BME280_humidity;BME280_pressure;Samples;Min_cycle;Max_cycle;Signal;HPM_P1;HPM_P2
2022/11/24 01:03:30;;;;;;;62.88;36.58;;;;;;;2.69;91.12;93305.51;1884258;75;22567;-86
2022/11/24 01:06:06;;;;;;;84.22;45.63;;;;;;;2.65;90.62;93313.61;1860961;77;20996;-86
2022/11/24 01:08:36;;;;;;;82.30;45.65;;;;;;;2.63;90.57;93310.54;1829955;77;21174;-85
2022/11/24 01:11:22;;;;;;;137.10;73.97;;;;;;;2.61;90.31;93303.42;1860768;77;21059;-85
2022/11/24 01:13:54;;;;;;;68.67;39.15;;;;;;;2.58;90.28;93307.02;1861339;77;20933;-85
2022/11/24 01:16:27;;;;;;;72.17;42.62;;;;;;;2.59;90.40;93305.81;1822238;78;21582;-86
2022/11/24 01:18:55;;;;;;;60.85;36.40;;;;;;;2.59;90.17;93316.09;1826403;78;21480;-84
2022/11/24 01:21:26;;;;;;;53.10;31.87;;;;;;;2.62;90.23;93322.59;1826528;78;21128;-85
2022/11/24 01:23:52;;;;;;;65.30;36.63;;;;;;;2.63;89.90;93324.11;1829743;78;20929;-85
2022/11/24 01:26:22;;;;;;;61.20;35.95;;;;;;;2.60;89.51;93323.63;1827735;78;20988;-85
2022/11/24 01:28:54;;;;;;;55.60;34.13;;;;;;;2.59;89.47;93328.89;1826048;77;21039;-85
2022/11/24 01:31:23;;;;;;;54.13;32.33;;;;;;;2.62;89.66;93327.44;1763242;80;21046;-85
2022/11/24 01:33:51;;;;;;;57.88;34.13;;;;;;;2.76;90.18;93333.05;1763458;81;21903;-85
2022/11/24 01:36:18;;;;;;;59.10;33.98;;;;;;;2.89;89.83;93329.77;1761848;81;21002;-84
2022/11/24 01:38:45;;;;;;;55.67;32.67;;;;;;;2.96;89.55;93333.05;1762879;80;21105;-84
2022/11/24 01:41:16;;;;;;;74.17;38.15;;;;;;;3.04;89.25;93334.95;1763245;80;21596;-85
2022/11/24 01:43:43;;;;;;;61.02;34.88;;;;;;;3.07;88.70;93338.16;1763576;80;21089;-85
2022/11/24 01:46:43;;;;;;;65.00;35.25;;;;;;;3.09;88.46;93334.41;1763067;80;21072;-85
2022/11/24 01:49:19;;;;;;;46.70;30.68;;;;;;;3.10;88.08;93329.91;1763454;80;21356;-85
2022/11/24 01:51:53;;;;;;;48.42;27.32;;;;;;;3.10;87.80;93334.56;1694982;84;21066;-85
2022/11/24 01:54:27;;;;;;;37.85;24.25;;;;;;;3.10;87.83;93331.27;1639595;87;21612;-85
2022/11/24 01:56:59;;;;;;;35.35;24.30;;;;;;;3.09;87.69;93332.44;1639146;87;21555;-86
2022/11/24 01:59:25;;;;;;;33.05;22.37;;;;;;;3.09;87.41;93328.98;1639621;87;21873;-85
2022/11/24 02:01:52;;;;;;;36.17;22.65;;;;;;;3.05;87.03;93324.25;1641273;87;21076;-86
2022/11/24 02:04:23;;;;;;;29.85;20.97;;;;;;;3.07;87.25;93325.33;1648870;86;20989;-85
2022/11/24 02:06:50;;;;;;;26.70;18.60;;;;;;;3.11;86.93;93326.00;1649798;87;21051;-85
2022/11/24 02:09:33;;;;;;;27.00;18.25;;;;;;;3.17;86.57;93328.91;1620047;87;21040;-85
2022/11/24 02:12:00;;;;;;;27.85;18.00;;;;;;;3.20;86.11;93326.09;1617476;88;21533;-85
2022/11/24 02:14:27;;;;;;;25.32;17.40;;;;;;;3.25;85.83;93330.23;1565218;90;21572;-86
2022/11/24 02:16:53;;;;;;;38.05;24.00;;;;;;;3.30;85.56;93321.53;1571146;90;21103;-84
2022/11/24 02:19:42;;;;;;;45.30;27.07;;;;;;;3.38;85.68;93329.03;1589662;89;21113;-85
2022/11/24 02:22:53;;;;;;;49.13;30.70;;;;;;;3.51;85.35;93329.17;1550757;91;21105;-85
2022/11/24 02:25:32;;;;;;;42.25;25.45;;;;;;;3.61;84.85;93332.17;1505222;94;21648;-86
2022/11/24 02:28:00;;;;;;;45.15;27.90;;;;;;;3.65;84.41;93332.06;1510248;92;21018;-84
2022/11/24 02:30:26;;;;;;;38.53;23.65;;;;;;;3.66;84.18;93328.89;1539594;93;21035;-84
2022/11/24 02:32:53;;;;;;;33.35;21.80;;;;;;;3.68;83.92;93329.83;1539913;91;21066;-85
2022/11/24 02:35:21;;;;;;;32.00;20.97;;;;;;;3.71;83.57;93331.05;1539653;92;21573;-85
2022/11/24 02:37:47;;;;;;;34.15;20.72;;;;;;;3.78;83.36;93337.64;1542320;93;21117;-85
2022/11/24 02:40:15;;;;;;;29.20;20.52;;;;;;;3.79;82.96;93334.30;1539748;91;21046;-85
2022/11/24 02:42:43;;;;;;;21.77;16.42;;;;;;;3.77;82.93;93334.77;1539548;91;21113;-86
2022/11/24 02:45:10;;;;;;;24.00;15.88;;;;;;;3.74;82.84;93339.72;1539879;93;21122;-84
2022/11/24 02:47:37;;;;;;;25.52;17.50;;;;;;;3.76;82.89;93340.63;1540376;91;21183;-85
2022/11/24 02:50:05;;;;;;;21.50;15.53;;;;;;;3.79;82.85;93337.80;1547763;89;21285;-84
2022/11/24 02:52:32;;;;;;;26.30;15.58;;;;;;;3.87;82.48;93337.72;1597609;89;21165;-84
2022/11/24 02:55:00;;;;;;;26.33;16.73;;;;;;;3.87;82.06;93339.69;1597504;88;21043;-85
2022/11/24 02:57:29;;;;;;;22.30;15.25;;;;;;;3.85;81.97;93348.28;1597453;88;22317;-86
2022/11/24 02:59:57;;;;;;;20.25;13.53;;;;;;;3.89;81.88;93350.28;1682425;84;21009;-85
2022/11/24 03:02:24;;;;;;;23.25;14.20;;;;;;;3.88;81.18;93356.17;1772220;79;21234;-85
2022/11/24 03:04:51;;;;;;;22.00;14.00;;;;;;;3.78;81.05;93357.27;1801520;79;21085;-85
2022/11/24 03:07:19;;;;;;;22.15;14.68;;;;;;;3.68;80.88;93356.41;1801607;79;21523;-85
2022/11/24 03:09:46;;;;;;;20.62;14.93;;;;;;;3.54;80.80;93359.56;1801566;79;21492;-85
2022/11/24 03:12:12;;;;;;;21.37;13.70;;;;;;;3.48;81.33;93357.23;1784061;80;21045;-86
2022/11/24 03:14:39;;;;;;;19.70;13.70;;;;;;;3.51;81.53;93363.77;1788025;80;21223;-86
2022/11/24 03:17:06;;;;;;;24.52;15.30;;;;;;;3.50;81.43;93367.07;1784137;80;21035;-85
2022/11/24 03:19:34;;;;;;;23.52;14.60;;;;;;;3.50;81.75;93361.64;1788017;80;21088;-83
2022/11/24 03:22:00;;;;;;;28.25;16.42;;;;;;;3.54;81.58;93365.00;1784780;80;21010;-86
2022/11/24 03:24:27;;;;;;;24.47;15.32;;;;;;;3.57;81.75;93362.80;1789077;80;21021;-84
2022/11/24 03:26:54;;;;;;;22.80;14.33;;;;;;;3.68;81.73;93357.02;1820822;79;21258;-85
2022/11/24 03:29:21;;;;;;;25.48;16.15;;;;;;;3.67;81.20;93358.97;1819253;79;20927;-85
2022/11/24 03:31:49;;;;;;;20.57;14.25;;;;;;;3.57;81.26;93366.88;1817817;79;21192;-86
2022/11/24 03:34:17;;;;;;;27.30;16.55;;;;;;;3.60;81.63;93366.00;1817868;78;21037;-86
2022/11/24 03:36:44;;;;;;;22.80;14.73;;;;;;;3.62;81.76;93369.63;1817863;79;21224;-86
2022/11/24 03:39:12;;;;;;;22.10;15.38;;;;;;;3.75;81.81;93367.66;1818037;79;21168;-85
2022/11/24 03:41:39;;;;;;;26.12;17.02;;;;;;;3.78;81.15;93375.72;1817869;79;21010;-86
2022/11/24 03:44:06;;;;;;;41.48;29.48;;;;;;;3.73;80.94;93380.32;1818079;79;20946;-86
2022/11/24 03:46:33;;;;;;;39.38;26.25;;;;;;;3.71;81.54;93373.81;1818018;79;21069;-87
2022/11/24 03:49:00;;;;;;;27.42;18.95;;;;;;;3.83;81.68;93369.72;1818019;78;21395;-86
2022/11/24 03:51:27;;;;;;;20.45;16.10;;;;;;;3.97;81.36;93367.12;1790315;79;21130;-86
2022/11/24 03:53:54;;;;;;;21.73;15.48;;;;;;;3.96;80.65;93365.61;1818426;79;20986;-86
2022/11/24 03:56:21;;;;;;;22.27;16.52;;;;;;;3.94;80.29;93368.02;1817866;79;21017;-85
2022/11/24 03:58:48;;;;;;;20.57;14.53;;;;;;;3.81;80.09;93376.20;1818049;79;21026;-86
2022/11/24 04:01:15;;;;;;;18.45;13.60;;;;;;;3.67;80.26;93375.28;1818336;79;21394;-85
2022/11/24 04:03:44;;;;;;;21.10;14.43;;;;;;;3.64;80.71;93376.16;1818074;79;21094;-86
2022/11/24 04:06:10;;;;;;;25.77;16.32;;;;;;;3.67;80.84;93382.08;1817985;79;21403;-84
2022/11/24 04:08:37;;;;;;;25.85;17.67;;;;;;;3.67;80.96;93380.72;1818761;79;20958;-84
2022/11/24 04:11:04;;;;;;;29.02;19.30;;;;;;;3.74;81.19;93373.71;1819387;79;21010;-85
2022/11/24 04:13:32;;;;;;;29.55;20.52;;;;;;;3.79;81.11;93377.23;1818918;79;20958;-86
2022/11/24 04:16:04;;;;;;;28.32;18.57;;;;;;;3.81;80.97;93374.84;1820926;77;20927;-86
2022/11/24 04:18:31;;;;;;;26.82;16.95;;;;;;;3.80;81.02;93371.95;1817448;77;20939;-88
2022/11/24 04:20:58;;;;;;;43.10;27.15;;;;;;;3.80;80.97;93376.03;1820687;77;21025;-86
2022/11/24 04:23:27;;;;;;;28.98;18.90;;;;;;;3.80;81.32;93384.20;1793669;77;21002;-86
2022/11/24 04:25:54;;;;;;;27.30;19.07;;;;;;;3.88;81.41;93384.73;1820883;77;21025;-86
2022/11/24 04:28:21;;;;;;;22.35;16.80;;;;;;;3.91;81.16;93382.49;1817806;78;21758;-85
2022/11/24 04:30:48;;;;;;;20.15;14.47;;;;;;;3.90;81.11;93384.44;1818071;79;21411;-86
2022/11/24 04:33:16;;;;;;;20.27;14.53;;;;;;;3.90;81.21;93388.52;1817835;79;21014;-85
2022/11/24 04:35:43;;;;;;;19.35;14.05;;;;;;;3.92;81.19;93386.14;1817849;79;21536;-86
2022/11/24 04:38:09;;;;;;;35.15;24.40;;;;;;;3.98;81.05;93388.47;1818016;79;20999;-86
2022/11/24 04:40:37;;;;;;;20.95;16.05;;;;;;;3.96;80.71;93396.31;1790607;79;21926;-86
2022/11/24 04:43:04;;;;;;;20.00;13.85;;;;;;;3.88;80.60;93399.08;1791380;79;21006;-85
2022/11/24 04:45:31;;;;;;;23.73;15.58;;;;;;;3.75;80.68;93398.34;1818585;79;21493;-85
2022/11/24 04:47:57;;;;;;;19.25;15.28;;;;;;;3.63;81.26;93399.10;1818105;79;20991;-86
2022/11/24 04:50:24;;;;;;;26.82;17.67;;;;;;;3.60;81.27;93394.54;1818014;79;21501;-86
2022/11/24 04:52:51;;;;;;;25.35;16.85;;;;;;;3.52;81.38;93400.02;1817694;79;21792;-85
2022/11/24 04:55:18;;;;;;;26.42;16.82;;;;;;;3.45;81.40;93405.52;1817845;79;21474;-86
2022/11/24 04:57:44;;;;;;;25.77;19.92;;;;;;;3.42;81.99;93403.67;1817970;79;21493;-85
2022/11/24 05:00:13;;;;;;;19.45;13.80;;;;;;;3.43;82.19;93401.86;1817911;79;20974;-86
2022/11/24 07:38:15;;;;;;;69.90;47.75;;;;;;;3.92;86.59;93514.58;1842227;76;22481;-90
2022/11/24 07:40:44;;;;;;;84.92;56.13;;;;;;;3.94;86.08;93518.41;1764865;79;21088;-89
2022/11/24 07:43:17;;;;;;;111.52;68.57;;;;;;;3.92;85.80;93518.08;1785104;79;21482;-87
2022/11/24 07:46:01;;;;;;;93.40;62.73;;;;;;;3.98;85.82;93524.48;1776547;80;21186;-89
2022/11/24 07:48:35;;;;;;;126.80;75.35;;;;;;;4.13;85.87;93520.73;1776774;78;21067;-86
2022/11/24 07:51:21;;;;;;;121.13;70.10;;;;;;;4.33;85.87;93519.31;1765534;78;21209;-90
2022/11/24 07:54:03;;;;;;;99.83;61.53;;;;;;;4.49;85.36;93523.28;1714857;81;21123;-88
2022/11/24 07:56:40;;;;;;;102.35;63.15;;;;;;;4.64;84.98;93527.05;1731179;81;21077;-86
2022/11/24 07:59:07;;;;;;;156.72;89.87;;;;;;;4.77;84.48;93529.77;1716512;82;21144;-83
2022/11/24 08:01:36;;;;;;;171.22;103.10;;;;;;;4.83;84.30;93527.38;1710830;82;21050;-81
2022/11/24 08:04:15;;;;;;;137.77;84.92;;;;;;;4.93;83.88;93526.28;1666299;84;21066;-88
2022/11/24 08:06:49;;;;;;;131.85;81.10;;;;;;;5.05;83.84;93532.30;1510748;94;21101;-82
2022/11/24 08:09:19;;;;;;;119.40;72.17;;;;;;;5.14;83.32;93529.64;1475249;96;21300;-86
2022/11/24 08:11:54;;;;;;;124.58;74.62;;;;;;;5.18;82.80;93527.55;1452903;97;21084;-83
2022/11/24 08:14:39;;;;;;;119.00;74.37;;;;;;;5.24;82.40;93525.18;1417505;100;21700;-87
2022/11/24 08:17:12;;;;;;;111.50;68.10;;;;;;;5.31;82.29;93520.86;1436346;99;21157;-84
2022/11/24 08:19:45;;;;;;;108.65;68.17;;;;;;;5.36;81.59;93527.69;1435258;99;21136;-82
2022/11/24 08:22:14;;;;;;;107.00;67.80;;;;;;;5.26;80.85;93528.22;1436558;99;21281;-85
2022/11/24 08:24:47;;;;;;;126.62;81.15;;;;;;;5.15;80.67;93532.52;1428731;99;21145;-85
2022/11/24 08:27:17;;;;;;;136.88;87.80;;;;;;;4.99;80.59;93537.39;1432630;99;21140;-82
2022/11/24 08:29:57;;;;;;;112.68;72.62;;;;;;;4.87;80.97;93538.17;1420412;99;21179;-79
2022/11/24 08:32:24;;;;;;;115.88;77.58;;;;;;;4.87;81.36;93537.59;1409825;100;21180;-82
2022/11/24 08:34:53;;;;;;;107.65;72.42;;;;;;;4.81;81.28;93543.41;1413793;100;21884;-87
2022/11/24 08:37:28;;;;;;;101.60;70.30;;;;;;;4.80;81.57;93537.80;1448741;97;21162;-87
2022/11/24 08:39:59;;;;;;;106.65;73.25;;;;;;;4.78;81.52;93540.82;1456621;97;21717;-86
2022/11/24 08:42:38;;;;;;;92.05;59.63;;;;;;;4.76;81.50;93543.97;1464401;97;21166;-84
2022/11/24 08:45:09;;;;;;;98.70;66.30;;;;;;;4.75;81.55;93542.45;1533897;91;21073;-84
2022/11/24 08:47:57;;;;;;;111.55;72.70;;;;;;;4.69;81.57;93539.36;1518162;93;21753;-88
2022/11/24 08:50:28;;;;;;;99.67;66.67;;;;;;;4.67;81.82;93546.62;1507120;91;21176;-83
2022/11/24 08:52:55;;;;;;;113.52;74.92;;;;;;;4.69;81.68;93545.58;1582565;87;21225;-87
2022/11/24 08:55:26;;;;;;;126.07;81.55;;;;;;;4.62;81.63;93543.06;1589488;88;21667;-90
2022/11/24 08:57:57;;;;;;;114.03;74.95;;;;;;;4.51;81.84;93534.49;1557346;90;21106;-82
2022/11/24 09:00:26;;;;;;;130.60;86.85;;;;;;;4.49;82.13;93542.92;1590947;87;21435;-83
2022/11/24 09:02:57;;;;;;;129.85;87.45;;;;;;;4.46;82.60;93544.55;1596658;88;21203;-80
2022/11/24 09:05:26;;;;;;;132.72;92.37;;;;;;;4.56;83.18;93536.66;1601261;87;21102;-77
2022/11/24 09:07:54;;;;;;;140.40;91.80;;;;;;;4.73;83.50;93531.82;1598841;87;21089;-82
2022/11/24 09:10:21;;;;;;;131.55;86.55;;;;;;;4.89;83.21;93536.54;1592204;88;21078;-81
2022/11/24 09:12:50;;;;;;;122.25;80.12;;;;;;;4.98;82.65;93535.25;1593690;87;21185;-86
2022/11/24 09:15:19;;;;;;;115.03;77.82;;;;;;;4.93;82.27;93533.09;1590448;90;21066;-85
2022/11/24 09:17:46;;;;;;;102.65;70.62;;;;;;;4.96;81.89;93537.66;1577902;90;21517;-84
2022/11/24 09:20:12;;;;;;;113.55;74.77;;;;;;;4.91;81.72;93532.77;1551221;90;21103;-87
2022/11/24 09:22:40;;;;;;;123.13;78.40;;;;;;;4.85;81.58;93537.27;1549681;90;21956;-81
2022/11/24 09:25:07;;;;;;;110.45;73.47;;;;;;;4.77;81.85;93530.52;1566098;89;22394;-81
2022/11/24 09:27:35;;;;;;;112.32;73.62;;;;;;;4.83;82.09;93533.45;1568079;89;21130;-82
2022/11/24 09:30:02;;;;;;;107.15;75.17;;;;;;;4.88;82.22;93532.30;1598856;88;21137;-84
2022/11/24 09:32:29;;;;;;;112.03;78.85;;;;;;;4.92;82.52;93534.30;1609341;86;21198;-84
2022/11/24 09:34:56;;;;;;;120.02;80.62;;;;;;;4.94;82.54;93529.16;1590714;89;21156;-83
2022/11/24 09:37:23;;;;;;;98.55;68.52;;;;;;;4.99;82.87;93536.02;1583072;88;21479;-82
2022/11/24 09:39:49;;;;;;;98.80;65.78;;;;;;;5.08;83.03;93532.78;1556742;90;21132;-83
2022/11/24 09:42:25;;;;;;;92.20;58.42;;;;;;;5.14;82.44;93538.44;1585975;86;21144;-85
2022/11/24 09:45:03;;;;;;;84.58;57.43;;;;;;;5.14;82.23;93536.45;1638739;84;21134;-80
2022/11/24 09:48:03;;;;;;;92.33;59.33;;;;;;;5.07;81.96;93536.70;1714787;82;21072;-81
2022/11/24 09:50:38;;;;;;;87.17;53.20;;;;;;;4.99;82.04;93535.41;1705543;81;21119;-86
2022/11/24 09:53:22;;;;;;;139.12;89.32;;;;;;;4.90;81.91;93533.98;1701787;83;21089;-82
2022/11/24 09:55:51;;;;;;;97.42;63.78;;;;;;;4.83;82.13;93528.00;1712391;82;21872;-83
2022/11/24 09:58:50;;;;;;;95.42;59.73;;;;;;;4.77;82.69;93531.88;1754931;80;21148;-80
2022/11/24 10:04:26;;;;;;;100.82;69.27;;;;;;;4.75;83.43;93522.63;1799343;75;21360;-81
2022/11/24 10:07:07;;;;;;;84.37;58.28;;;;;;;4.83;83.58;93526.02;1730374;81;21493;-81
2022/11/24 10:09:57;;;;;;;84.35;56.30;;;;;;;4.89;83.18;93523.50;1700653;83;21139;-82
2022/11/24 10:13:02;;;;;;;82.00;53.48;;;;;;;4.83;83.04;93534.81;1701080;83;21192;-81
2022/11/24 10:15:46;;;;;;;85.05;56.20;;;;;;;4.77;83.16;93525.06;1709953;82;21502;-80
2022/11/24 10:18:44;;;;;;;98.80;60.55;;;;;;;4.72;83.28;93526.98;1716204;82;21076;-81
2022/11/24 10:21:46;;;;;;;99.50;61.37;;;;;;;4.69;83.57;93525.73;1706699;83;21028;-85
2022/11/24 10:24:33;;;;;;;94.00;61.10;;;;;;;4.68;83.87;93528.30;1705476;82;21279;-80
2022/11/24 10:27:04;;;;;;;81.02;53.55;;;;;;;4.67;83.75;93525.41;1733105;81;21024;-82
2022/11/24 10:29:41;;;;;;;69.05;44.77;;;;;;;4.70;83.78;93536.20;1693908;84;21037;-81
2022/11/24 10:32:30;;;;;;;76.95;51.55;;;;;;;4.73;83.87;93531.23;1728393;81;21203;-81
2022/11/24 10:35:01;;;;;;;67.50;49.10;;;;;;;4.70;83.88;93533.48;1717321;83;21008;-81
2022/11/24 10:37:37;;;;;;;55.25;38.28;;;;;;;4.74;84.20;93530.03;1688061;83;21064;-80
2022/11/24 10:40:11;;;;;;;56.37;39.15;;;;;;;4.76;83.94;93533.08;1729994;81;21042;-83
2022/11/24 10:42:39;;;;;;;72.10;47.80;;;;;;;4.85;84.23;93538.63;1755690;81;21063;-80
2022/11/24 10:45:12;;;;;;;67.72;45.17;;;;;;;4.95;84.17;93535.39;1738342;80;21280;-83
2022/11/24 10:47:40;;;;;;;80.40;53.45;;;;;;;5.05;84.36;93535.03;1772854;78;21008;-82
2022/11/24 10:50:23;;;;;;;78.92;52.70;;;;;;;5.15;83.92;93540.70;1787039;79;21064;-83
2022/11/24 10:53:20;;;;;;;75.08;50.52;;;;;;;5.30;83.96;93537.65;1742369;80;21025;-84
2022/11/24 10:55:59;;;;;;;93.42;63.70;;;;;;;5.47;83.69;93533.54;1764127;80;21068;-83
2022/11/24 13:14:07;;;;;;;83.72;55.50;;;;;;;4.51;90.10;93567.16;1806688;77;26094;-83
2022/11/24 13:16:34;;;;;;;91.47;57.20;;;;;;;4.46;89.85;93563.61;1765769;79;21038;-83
2022/11/24 13:19:08;;;;;;;89.13;56.37;;;;;;;4.48;90.09;93561.23;1739615;79;21867;-81
2022/11/24 13:21:48;;;;;;;110.83;68.33;;;;;;;4.54;90.34;93559.48;1775482;78;21505;-84
2022/11/24 13:24:24;;;;;;;94.10;60.60;;;;;;;4.66;90.60;93562.02;1780270;78;21601;-78
2022/11/24 13:27:17;;;;;;;95.25;59.98;;;;;;;4.77;90.46;93562.45;1772311;78;21053;-81
2022/11/24 13:29:49;;;;;;;94.07;63.38;;;;;;;4.80;89.87;93570.49;1782385;78;21120;-83
2022/11/24 13:32:25;;;;;;;101.33;65.78;;;;;;;4.73;89.52;93565.28;1728498;80;21280;-84
2022/11/24 13:35:13;;;;;;;104.38;72.08;;;;;;;4.72;90.02;93566.48;1768822;79;20966;-85
2022/11/24 13:37:47;;;;;;;93.95;64.95;;;;;;;4.82;90.56;93569.45;1774604;78;21579;-81
2022/11/24 13:40:23;;;;;;;96.32;65.08;;;;;;;4.96;90.31;93567.63;1760839;79;21042;-84
2022/11/24 13:43:01;;;;;;;88.52;61.35;;;;;;;5.00;89.62;93576.44;1757052;80;21116;-77
2022/11/24 13:45:50;;;;;;;80.62;53.15;;;;;;;4.99;89.27;93576.28;1755373;79;21964;-81
2022/11/24 13:48:25;;;;;;;81.72;58.38;;;;;;;4.96;88.89;93574.44;1771794;78;21069;-83
2022/11/24 13:51:00;;;;;;;133.65;77.05;;;;;;;4.89;88.91;93576.05;1743863;80;21186;-84
2022/11/24 13:53:46;;;;;;;111.28;68.90;;;;;;;4.91;89.37;93576.36;1744990;80;21059;-83
2022/11/24 13:56:19;;;;;;;103.07;64.20;;;;;;;4.98;89.43;93582.94;1713460;81;21087;-81
2022/11/24 13:58:52;;;;;;;98.15;64.58;;;;;;;5.07;89.66;93583.04;1731825;80;21271;-81
2022/11/24 14:01:24;;;;;;;90.85;60.50;;;;;;;5.17;89.18;93585.99;1693413;82;21050;-86
2022/11/24 14:04:17;;;;;;;;;;;;;;;5.19;88.68;93599.94;1738629;81;21185;-84
2022/11/24 14:06:53;;;;;;;91.15;60.67;;;;;;;5.25;88.72;93590.77;1714854;82;20186;-83
2022/11/24 14:09:36;;;;;;;84.00;57.00;;;;;;;5.31;88.59;93596.42;1709396;82;20991;-82
2022/11/24 14:12:16;;;;;;;64.42;44.77;;;;;;;5.36;88.07;93596.63;1670640;84;21152;-83
2022/11/24 14:14:44;;;;;;;69.55;46.73;;;;;;;5.30;87.29;93601.72;1627826;86;21756;-82
2022/11/24 14:17:21;;;;;;;67.92;45.98;;;;;;;5.25;87.68;93595.47;1662368;84;21074;-83
2022/11/24 14:23:17;;;;;;;83.80;57.13;;;;;;;5.40;87.26;93605.45;1752591;79;27073;-85
